ADDS METAR Data INFO
IDs: Format: Raw Decoded Include TAF

Data at: 0741 UTC 23 Jul 2018

KWDG 230715Z AUTO 00000KT CLR 22/20 A2996 RMK AO2 PWINO
KWDG 230655Z AUTO 11003KT CLR 23/20 A2996 RMK AO2 PWINO
KWDG 230635Z AUTO 06005KT CLR 23/20 A2996 RMK AO2 PWINO
KWDG 230615Z AUTO 06007KT CLR 23/20 A2995 RMK AO2 PWINO
KWDG 230555Z AUTO 06007KT CLR 23/20 A2995 RMK AO2 PWINO
KWDG 230535Z AUTO 06007KT CLR 24/20 A2995 RMK AO2 PWINO
KWDG 230515Z AUTO 06008KT CLR 24/20 A2994 RMK AO2 PWINO
KWDG 230455Z AUTO 06008KT CLR 24/20 A2994 RMK AO2 PWINO
KWDG 230435Z AUTO 06005KT CLR 25/20 A2993 RMK AO2 PWINO
KWDG 230415Z AUTO 08009KT CLR 25/20 A2994 RMK AO2 PWINO
KWDG 230355Z AUTO 07009KT CLR 25/20 A2994 RMK AO2 PWINO
KWDG 230335Z AUTO 07006KT CLR 26/19 A2993 RMK AO2 PWINO
KWDG 230315Z AUTO 08012KT CLR 26/19 A2992 RMK AO2 PWINO
KWDG 230150Z 09011KT 10SM FEW180 SCT200 28/18 A2989 RMK LAST
KWDG 230050Z 09011KT 10SM FEW180 SCT200 30/18 A2988
KWDG 222348Z 09011KT 10SM SCT180 SCT200 34/19 A2989
KWDG 222250Z 09011G16KT 10SM SCT180 SCT200 36/19 A2989
KWDG 222150Z 10012G18KT 10SM SCT180 SCT200 36/19 A2989
KWDG 222050Z 10010G16KT 10SM SCT180 BKN200 37/18 A2990
KWDG 221949Z 11010G15KT 10SM SCT180 BKN200 37/18 A2992
KWDG 221850Z 12013KT 10SM SCT180 BKN200 35/17 A2993
KWDG 221750Z 11008KT 10SM BKN180 OVC200 31/19 A2995
KWDG 221650Z 11010KT 10SM BKN130 29/17 A2997
KWDG 221548Z 06010KT 10SM BKN130 BKN200 29/19 A2998
KWDG 221450Z 07009KT 10SM BKN130 BKN200 29/19 A2998
KWDG 221348Z 08008KT 10SM SCT130 BKN200 28/19 A2997
KWDG 221250Z 09007KT 10SM SCT130 BKN150 27/19 A2996
KWDG 221155Z AUTO 08005KT CLR 23/18 A2997 RMK AO2 PWINO
KWDG 221150Z 07005KTKT 10SM SCT130 BKN150 24/19 A2997
KWDG 221135Z AUTO 09006KT CLR 23/18 A2997 RMK AO2 PWINO
KWDG 221115Z 08007KT 10SM BKN130 24/19 A2996 RMK FIRST
KWDG 221055Z AUTO 07003KT CLR 23/19 A2997 RMK AO2 PWINO
KWDG 221035Z AUTO 06004KT CLR 22/18 A2997 RMK AO2 PWINO
KWDG 221015Z AUTO 00000KT CLR 22/18 A2997 RMK AO2 PWINO
KWDG 220955Z AUTO 00000KT CLR 22/18 A2996 RMK AO2 LTG DSNT N PWINO
KWDG 220935Z AUTO 14003KT CLR 23/18 A2995 RMK AO2 LTG DSNT N PWINO
KWDG 220915Z AUTO 00000KT CLR 23/18 A2995 RMK AO2 LTG DSNT N PWINO
KWDG 220855Z AUTO 11004KT CLR 25/18 A2994 RMK AO2 PWINO
KWDG 220835Z AUTO 10008KT CLR 25/18 A2994 RMK AO2 PWINO
KWDG 220815Z AUTO 06006KT CLR 25/18 A2996 RMK AO2 PWINO
KWDG 220755Z AUTO 08011KT CLR 26/18 A2995 RMK AO2 PWINO
KWDG 220735Z AUTO 09009KT CLR 25/18 A2995 RMK AO2 PWINO
KWDG 220715Z AUTO 10007KT CLR 25/18 A2994 RMK AO2 PWINO
KWDG 220655Z AUTO 11007KT CLR 25/19 A2995 RMK AO2 PWINO
KWDG 220635Z AUTO 10008KT CLR 26/19 A2995 RMK AO2 PWINO
KWDG 220615Z AUTO 10008KT CLR 26/19 A2995 RMK AO2 PWINO
KWDG 220555Z AUTO 10008KT CLR 27/19 A2995 RMK AO2 PWINO
KWDG 220530Z AUTO 09010KT CLR 27/19 A2995 RMK AO2 PWINO
KWDG 220515Z AUTO 08010KT CLR 27/19 A2994 RMK AO2 PWINO
KWDG 220455Z AUTO 09009KT CLR 27/19 A2994 RMK AO2 PWINO
KWDG 220435Z AUTO 09009KT CLR 28/19 A2995 RMK AO2 PWINO
KWDG 220415Z AUTO 08013KT CLR 28/19 A2995 RMK AO2 PWINO
KWDG 220355Z AUTO 08012KT CLR 30/19 A2995 RMK AO2 PWINO
KWDG 220335Z AUTO 08012KT CLR 30/19 A2994 RMK AO2 PWINO
KWDG 220315Z AUTO 08008KT CLR 29/20 A2994 RMK AO2 PWINO
KWDG 220150Z 06006KT 10SM SCT200 32/19 A2994 RMK LAST
KWDG 220050Z 07012KT 10SM SCT200 36/18 A2992
KWDG 212350Z 07009KT 10SM SKC 38/18 A2992
KWDG 212248Z 08009KT 10SM FEW200 39/19 A2993
KWDG 212148Z 07008G14KT 10SM SKC 40/19 A2993
KWDG 212050Z 08010G15KT 10SM SKC 39/18 A2994
KWDG 211948Z 08010G16KT 10SM FEW130 FEW200 39/19 A2995